McBeth, Texas
Current Conditions -  °F | °C
As of 9:53 AM on Saturday 20 Dec 2014 (Local Time) from KLBX Reporting Station
Overcast Overcast  
Wind Chill: 51°   Ceiling: 600
Heat Index: 51°   Visibility: 9mi
Dew Point: 50°   Wind: 16mph
Humidity: 96%   Direction: 20°NNE
Pressure: 30.2"   Gusts: NA
Location:  29.1898°N, 95.4754°W
Report Text: KLBX 201553Z AUTO 02014KT 9SM OVC006 11/10 A3020 RMK AO2 SLP225 T01060100
Loading
Personal Weather Stations






























Interactive Weather Map New forecast layout! Learn more

10-Day Weather Forecast

Advertisements
Track Severe Weather on mobile